Etusivu
METAR-TAF:

METAR-TAF

Lentoasemat :

Havre City-County Airport

Havre, Montana, Yhdysvallat

Leveyspiiri: 48-32-34N, Pituuspiiri: 109-45-48W, korkeus merenpinnasta: 789 m

Tämänhetkinen sää

Tämä raportti tehtiin 32 minuuttia sitten, kello 20.53 UTC
Tuuli 15 kn lounaasta
Lämpötila 11°C
Kosteus 50%
Ilmanpaine 1013 hPa
Näkyvyys: 16.1 km
selkeää

METAR: KHVR 202053Z AUTO 22015KT 10SM CLR 11/01 A2992 RMK AO2 SLP146 T01110006 56021

Aika: 14:25 (21:25 UTC)

Sääennuste

Tämä raportti tehtiin 4 tuntia ja 5 minuuttia sitten, kello 17.20 UTC
Ennuste voimassa 20. päivästä klo 18 UTC - 21. päivään klo 18 UTC
Tuuli 15 kn lounaasta
Näkyvyys: 10 km
selkeää
Ajoittain
20. päivästä klo 18 UTC - 20. päivään klo 20 UTC
Tuuli 15 kn lounaasta puuskistuen 25 kn:hen
From 20. päivästä klo 2300 UTC
Tuuli 8 kn lounaasta
Näkyvyys: 10 km
selkeää

TAF: KHVR 201720Z 2018/2118 23015KT P6SM SKC TEMPO 2018/2020 23015G25KT FM202300 23008KT P6SM SKC

Säähavainnot ja -ennusteet yli 4000 lentoasemalta (METAR- ja TAF-raportit).

Käytössä olevat sääasemat on merkitty karttaan keltaisilla ja punaisilla pisteillä.

Aseta hiiri pisteen päälle nähdäksesi sääaseman nimen.

Klikkaa sitten nähdäksesi säähavainnot ja -ennusteet.

Kartan vaihtaminen: klikkaa mustalla rastilla varustettuja vihreitä pisteitä, niin voit zoomata sisään; viivalla varustettua vihreää pistettä, niin voit zoomata ulos tai vihreitä nuolia, niin pääset viereisille kartoille.


METAR-TAF: